< < Back
Terminal Aerodrome Forecast


Current Version              Previous Versions:   1  2  3  4  5  6  7  8  9  

Terminal Aerodrome Forecast

645
FTUS44 KHUN 230542
TAFHSV
TAF
KHSV 230542Z 2306/2406 13010KT P6SM SCT025 BKN035 OVC250
     FM231000 11012G20KT P6SM VCSH BKN015 OVC025
     FM231500 11015G25KT P6SM SHRA BKN008 BKN015 OVC025
     FM231900 13015G25KT P6SM SHRA VCTS BKN008CB BKN015 OVC025
     FM232200 19012G20KT P6SM BKN015 OVC025=



Latest METAR

201
SAUS80 KWBC 231200 RRA
MTRHSV
METAR KHSV 231153Z COR 12017G22KT 4SM RA BR SCT024 BKN042 OVC060 12/09
A2991 RMK AO2 RAB40 SLP124 P0003 60003 70003 T01220089 10150
20122 58014 $


USA.gov is the U.S. government's official web portal to all federal, state and local government web resources and services.